Franklin, Georgia
Current Conditions -  °F | °C
As of 9:55 PM on Friday 19 Dec 2014 (Local Time) from KLGC Reporting Station
Moderate Rain Moderate Rain  
Wind Chill: 50°   Ceiling: 7000
Heat Index: 50°   Visibility: 10mi
Dew Point: 40°   Wind: 0mph
Humidity: 70%   Direction: NA
Pressure: 30.17"   Gusts: NA
Location:  33.28°N, 85.1°W
Report Text: KLGC 200255Z AUTO 00000KT 10SM RA BKN070 OVC100 10/05 A3017 RMK AO2 T00980045
Loading
Personal Weather Stations






























Interactive Weather Map New forecast layout! Learn more

10-Day Weather Forecast

Advertisements
Track Severe Weather on mobile